Time;durP1;ratioP1;P1;durP2;ratioP2;P2;SDS_P1;SDS_P2;PMS_P1;PMS_P2;Temp;Humidity;BMP_temperature;BMP_pressure;BME280_temperature;BME280_humidity;BME280_pressure;Samples;Min_cycle;Max_cycle;Signal;HPM_P1;HPM_P2
2023/12/08 00:01:32;;;;;;;22.00;10.93;;;;;;;;;;5074702;28;20040;-27
2023/12/08 00:03:57;;;;;;;17.55;9.88;;;;;;;;;;5074816;28;20055;-27
2023/12/08 00:06:22;;;;;;;19.00;10.38;;;;;;;;;;5074614;28;20055;-27
2023/12/08 00:08:47;;;;;;;19.60;11.07;;;;;;;;;;5075217;28;20020;-26
2023/12/08 00:11:12;;;;;;;19.40;10.68;;;;;;;;;;5075490;28;20273;-26
2023/12/08 00:13:37;;;;;;;19.77;9.93;;;;;;;;;;5074551;28;20020;-27
2023/12/08 00:16:03;;;;;;;22.02;10.43;;;;;;;;;;5075060;28;20259;-27
2023/12/08 00:18:28;;;;;;;23.88;9.77;;;;;;;;;;5074863;28;20016;-26
2023/12/08 00:20:53;;;;;;;18.85;10.38;;;;;;;;;;5074394;28;20016;-26
2023/12/08 00:23:19;;;;;;;20.23;10.55;;;;;;;;;;5074918;28;20048;-26
2023/12/08 00:25:44;;;;;;;23.33;10.82;;;;;;;;;;5074219;28;20036;-27
2023/12/08 00:28:09;;;;;;;21.00;10.63;;;;;;;;;;5074263;28;20074;-26
2023/12/08 00:30:35;;;;;;;22.63;10.43;;;;;;;;;;5074172;28;20734;-26
2023/12/08 00:33:02;;;;;;;21.67;10.60;;;;;;;;;;5074418;28;20269;-26
2023/12/08 00:35:27;;;;;;;21.45;11.10;;;;;;;;;;5072855;28;20424;-26
2023/12/08 00:37:52;;;;;;;24.90;10.70;;;;;;;;;;5074107;28;20055;-26
2023/12/08 00:40:18;;;;;;;25.35;11.38;;;;;;;;;;5074135;28;20070;-26
2023/12/08 00:42:43;;;;;;;25.13;11.82;;;;;;;;;;5073938;28;20020;-26
2023/12/08 00:45:08;;;;;;;24.17;11.60;;;;;;;;;;5074123;28;20021;-26
2023/12/08 00:47:33;;;;;;;20.67;11.18;;;;;;;;;;5073847;28;20025;-26
2023/12/08 00:49:58;;;;;;;25.23;11.37;;;;;;;;;;5074142;28;20031;-26
2023/12/08 00:52:24;;;;;;;23.55;12.00;;;;;;;;;;5073801;28;20282;-26
2023/12/08 00:54:49;;;;;;;19.03;11.03;;;;;;;;;;5074140;28;20023;-27
2023/12/08 00:57:14;;;;;;;23.10;11.97;;;;;;;;;;5074290;28;20263;-26
2023/12/08 00:59:40;;;;;;;24.42;11.40;;;;;;;;;;5073996;28;20669;-26
2023/12/08 01:02:05;;;;;;;23.33;11.13;;;;;;;;;;5073589;28;20061;-26
2023/12/08 01:04:30;;;;;;;24.80;12.23;;;;;;;;;;5073185;28;20107;-26
2023/12/08 01:06:55;;;;;;;21.77;11.57;;;;;;;;;;5073489;28;20749;-26
2023/12/08 01:09:20;;;;;;;29.98;12.50;;;;;;;;;;5073626;28;20288;-26
2023/12/08 01:11:45;;;;;;;22.50;12.37;;;;;;;;;;5073549;28;20448;-26
2023/12/08 01:14:11;;;;;;;22.80;11.67;;;;;;;;;;5074136;28;20251;-27
2023/12/08 01:16:43;;;;;;;23.92;12.07;;;;;;;;;;5073882;28;20342;-26
2023/12/08 01:19:09;;;;;;;25.48;12.27;;;;;;;;;;5074028;28;20103;-26
2023/12/08 01:21:37;;;;;;;27.77;13.13;;;;;;;;;;5072194;28;20474;-26
2023/12/08 01:24:03;;;;;;;26.33;12.80;;;;;;;;;;5073332;28;20020;-27
2023/12/08 01:26:28;;;;;;;23.40;12.00;;;;;;;;;;5073355;28;20046;-29
2023/12/08 01:28:53;;;;;;;27.10;12.48;;;;;;;;;;5073402;28;20039;-26
2023/12/08 01:31:18;;;;;;;26.95;12.65;;;;;;;;;;5073906;28;20055;-26
2023/12/08 01:33:44;;;;;;;25.60;12.60;;;;;;;;;;5073906;28;20024;-26
2023/12/08 01:36:09;;;;;;;26.63;12.88;;;;;;;;;;5073533;28;20261;-26
2023/12/08 01:38:35;;;;;;;26.38;13.00;;;;;;;;;;5073853;28;20028;-26
2023/12/08 01:41:00;;;;;;;27.17;13.32;;;;;;;;;;5073559;28;20463;-26
2023/12/08 01:43:25;;;;;;;25.07;12.73;;;;;;;;;;5073505;28;20020;-26
2023/12/08 01:45:51;;;;;;;24.70;12.27;;;;;;;;;;5073430;28;20753;-26
2023/12/08 01:48:16;;;;;;;24.52;12.88;;;;;;;;;;5073207;28;20087;-27
2023/12/08 01:50:41;;;;;;;27.60;12.68;;;;;;;;;;5071901;28;20023;-27
2023/12/08 01:53:06;;;;;;;24.92;13.13;;;;;;;;;;5076092;28;20042;-27
2023/12/08 01:55:32;;;;;;;25.00;13.07;;;;;;;;;;5075872;28;20032;-27
2023/12/08 01:57:58;;;;;;;27.95;13.10;;;;;;;;;;5077846;28;20479;-27
2023/12/08 02:00:23;;;;;;;27.10;13.00;;;;;;;;;;5077186;28;20059;-27
2023/12/08 02:02:48;;;;;;;24.65;12.23;;;;;;;;;;5077055;28;20025;-27
2023/12/08 02:05:15;;;;;;;22.27;12.30;;;;;;;;;;5077500;28;20162;-27
2023/12/08 02:07:40;;;;;;;22.88;12.40;;;;;;;;;;5077241;28;20362;-27
2023/12/08 02:10:06;;;;;;;23.17;12.60;;;;;;;;;;5077160;28;20013;-27
2023/12/08 02:12:31;;;;;;;23.80;12.20;;;;;;;;;;5077075;28;20025;-27
2023/12/08 02:14:56;;;;;;;25.30;12.57;;;;;;;;;;5076850;28;20016;-27
2023/12/08 02:17:23;;;;;;;25.20;12.73;;;;;;;;;;5076748;28;20024;-27
2023/12/08 02:19:48;;;;;;;22.80;12.48;;;;;;;;;;5076713;28;20024;-27
2023/12/08 02:22:15;;;;;;;23.58;12.05;;;;;;;;;;5076658;28;20028;-27
2023/12/08 02:24:40;;;;;;;21.27;10.95;;;;;;;;;;5076673;28;20055;-27
2023/12/08 02:27:06;;;;;;;23.93;12.07;;;;;;;;;;5077085;28;20159;-27
2023/12/08 02:29:31;;;;;;;23.13;11.70;;;;;;;;;;5076547;28;20722;-27
2023/12/08 02:32:03;;;;;;;23.25;12.23;;;;;;;;;;5076763;28;20008;-27
2023/12/08 02:34:29;;;;;;;23.35;11.75;;;;;;;;;;5076795;28;20066;-27
2023/12/08 02:36:54;;;;;;;24.48;12.30;;;;;;;;;;5076384;28;20024;-27
2023/12/08 02:39:20;;;;;;;21.50;12.15;;;;;;;;;;5076945;28;20341;-27
2023/12/08 02:41:45;;;;;;;24.35;12.07;;;;;;;;;;5076586;28;20026;-27
2023/12/08 02:44:11;;;;;;;23.80;11.80;;;;;;;;;;5077161;28;20032;-27
2023/12/08 02:46:36;;;;;;;24.00;11.80;;;;;;;;;;5076226;28;20074;-27
2023/12/08 02:49:01;;;;;;;22.17;11.70;;;;;;;;;;5076264;28;20479;-27
2023/12/08 02:51:26;;;;;;;25.33;12.65;;;;;;;;;;5076130;28;20255;-27
2023/12/08 02:53:52;;;;;;;20.27;11.95;;;;;;;;;;5076158;28;20051;-27
2023/12/08 02:56:17;;;;;;;23.15;11.68;;;;;;;;;;5076039;28;20305;-27
2023/12/08 02:58:43;;;;;;;26.52;11.75;;;;;;;;;;5076083;28;20013;-27
2023/12/08 03:01:08;;;;;;;22.57;12.23;;;;;;;;;;5076185;28;20124;-27
2023/12/08 03:03:33;;;;;;;23.40;12.30;;;;;;;;;;5075966;28;20356;-27
2023/12/08 03:05:58;;;;;;;21.23;12.07;;;;;;;;;;5075841;28;20282;-28
2023/12/08 03:08:23;;;;;;;22.90;12.23;;;;;;;;;;5075885;28;20790;-28
2023/12/08 03:10:48;;;;;;;23.00;12.57;;;;;;;;;;5076136;28;20008;-28
2023/12/08 03:13:14;;;;;;;20.50;11.90;;;;;;;;;;5075812;28;20008;-27
2023/12/08 03:15:39;;;;;;;24.00;12.07;;;;;;;;;;5076317;28;20284;-27
2023/12/08 03:18:04;;;;;;;22.48;12.38;;;;;;;;;;5075693;28;20613;-27
2023/12/08 03:20:29;;;;;;;25.03;11.73;;;;;;;;;;5076226;28;20031;-27
2023/12/08 03:22:55;;;;;;;23.63;12.53;;;;;;;;;;5075495;28;20341;-27
2023/12/08 03:25:20;;;;;;;25.63;11.82;;;;;;;;;;5075310;28;20266;-29
2023/12/08 03:27:46;;;;;;;21.60;12.20;;;;;;;;;;5075434;28;20017;-27
2023/12/08 03:30:11;;;;;;;21.50;11.83;;;;;;;;;;5075643;28;20020;-27
2023/12/08 03:32:36;;;;;;;21.27;10.98;;;;;;;;;;5075254;28;20741;-27
2023/12/08 03:35:02;;;;;;;22.13;12.13;;;;;;;;;;5075238;28;20496;-27
2023/12/08 03:37:27;;;;;;;23.85;12.75;;;;;;;;;;5075364;28;20263;-27
2023/12/08 03:39:53;;;;;;;24.33;12.63;;;;;;;;;;5075548;28;20123;-27
2023/12/08 03:42:18;;;;;;;22.42;12.32;;;;;;;;;;5075741;28;20289;-28
2023/12/08 03:44:43;;;;;;;20.10;10.73;;;;;;;;;;5075223;28;20416;-27
2023/12/08 03:47:09;;;;;;;21.77;11.07;;;;;;;;;;5075577;28;20286;-27
2023/12/08 03:49:34;;;;;;;21.33;11.23;;;;;;;;;;5075159;28;20289;-27
2023/12/08 03:51:59;;;;;;;24.50;11.57;;;;;;;;;;5075342;28;20246;-27
2023/12/08 03:54:24;;;;;;;20.52;10.50;;;;;;;;;;5074965;28;20305;-27
2023/12/08 03:56:49;;;;;;;23.43;11.77;;;;;;;;;;5075537;28;20063;-27
2023/12/08 03:59:14;;;;;;;20.58;11.38;;;;;;;;;;5073627;28;20263;-27
2023/12/08 04:01:40;;;;;;;22.60;11.57;;;;;;;;;;5074843;28;20052;-27
2023/12/08 04:04:05;;;;;;;21.98;11.77;;;;;;;;;;5075017;28;20503;-27
2023/12/08 04:06:30;;;;;;;26.08;12.55;;;;;;;;;;5074925;28;20529;-27
2023/12/08 04:08:56;;;;;;;21.70;11.30;;;;;;;;;;5074989;28;20127;-27
2023/12/08 04:11:21;;;;;;;21.55;11.98;;;;;;;;;;5074607;28;20246;-27
2023/12/08 04:13:46;;;;;;;24.40;11.90;;;;;;;;;;5075166;28;20021;-27
2023/12/08 04:16:13;;;;;;;21.05;11.85;;;;;;;;;;5074092;28;20247;-27
2023/12/08 04:18:39;;;;;;;23.23;12.15;;;;;;;;;;5074472;28;20052;-27
2023/12/08 04:21:04;;;;;;;21.03;11.03;;;;;;;;;;5074941;28;20016;-27
2023/12/08 04:23:29;;;;;;;22.75;12.85;;;;;;;;;;5074728;28;20269;-27
2023/12/08 04:25:54;;;;;;;21.77;12.07;;;;;;;;;;5074293;28;20095;-27
2023/12/08 04:28:19;;;;;;;27.80;12.93;;;;;;;;;;5074900;28;20247;-27
2023/12/08 04:30:44;;;;;;;21.47;11.53;;;;;;;;;;5074720;28;20346;-27
2023/12/08 04:33:10;;;;;;;28.13;12.52;;;;;;;;;;5074204;28;20576;-27
2023/12/08 04:35:35;;;;;;;26.70;12.80;;;;;;;;;;5074204;28;20422;-27
2023/12/08 04:38:00;;;;;;;24.93;12.83;;;;;;;;;;5074703;28;20016;-27
2023/12/08 04:40:26;;;;;;;23.85;12.02;;;;;;;;;;5074038;28;20328;-27
2023/12/08 04:42:51;;;;;;;24.97;12.87;;;;;;;;;;5074615;28;20086;-27
2023/12/08 04:45:16;;;;;;;24.57;12.27;;;;;;;;;;5073930;28;20255;-27
2023/12/08 04:47:41;;;;;;;28.83;12.60;;;;;;;;;;5074212;28;20259;-27
2023/12/08 04:50:07;;;;;;;23.65;12.10;;;;;;;;;;5073916;28;20027;-27
2023/12/08 04:52:32;;;;;;;25.58;13.35;;;;;;;;;;5073823;28;20099;-27
2023/12/08 04:54:58;;;;;;;20.80;11.77;;;;;;;;;;5074105;28;20009;-27
2023/12/08 04:57:23;;;;;;;26.23;13.43;;;;;;;;;;5073782;28;20468;-27
2023/12/08 04:59:49;;;;;;;22.92;12.57;;;;;;;;;;5073689;28;20074;-28
2023/12/08 05:02:14;;;;;;;22.13;12.35;;;;;;;;;;5074021;28;20020;-27
2023/12/08 05:04:40;;;;;;;23.65;12.45;;;;;;;;;;5074031;28;20154;-27
2023/12/08 05:07:05;;;;;;;22.95;12.15;;;;;;;;;;5073591;28;20048;-27
2023/12/08 05:09:30;;;;;;;24.80;13.10;;;;;;;;;;5074554;28;20052;-27
2023/12/08 05:11:56;;;;;;;22.23;11.95;;;;;;;;;;5074066;28;20259;-28
2023/12/08 05:14:21;;;;;;;27.15;13.45;;;;;;;;;;5073874;28;20016;-27
2023/12/08 05:16:46;;;;;;;27.13;13.40;;;;;;;;;;5074135;28;20029;-27
2023/12/08 05:19:11;;;;;;;25.98;13.98;;;;;;;;;;5074175;28;20741;-27
2023/12/08 05:21:36;;;;;;;25.63;13.07;;;;;;;;;;5074086;28;20036;-27
2023/12/08 05:24:02;;;;;;;24.07;13.27;;;;;;;;;;5073448;28;20759;-27
2023/12/08 05:26:27;;;;;;;23.42;12.38;;;;;;;;;;5071330;28;20282;-27
2023/12/08 05:28:52;;;;;;;21.77;12.00;;;;;;;;;;5074043;28;20016;-28
2023/12/08 05:31:18;;;;;;;26.50;13.67;;;;;;;;;;5073436;28;20726;-27
2023/12/08 05:33:43;;;;;;;27.67;12.65;;;;;;;;;;5073930;28;20255;-27
2023/12/08 05:36:09;;;;;;;25.17;13.75;;;;;;;;;;5073329;28;20033;-27
2023/12/08 05:38:34;;;;;;;26.52;13.05;;;;;;;;;;5073636;28;20380;-27
2023/12/08 05:41:00;;;;;;;24.35;13.05;;;;;;;;;;5073320;28;20020;-27
2023/12/08 05:43:25;;;;;;;25.77;12.38;;;;;;;;;;5073206;28;20067;-27
2023/12/08 05:45:50;;;;;;;23.13;13.00;;;;;;;;;;5073722;28;20016;-27
2023/12/08 05:48:15;;;;;;;25.85;13.40;;;;;;;;;;5073243;28;20793;-27
2023/12/08 05:50:40;;;;;;;25.33;12.93;;;;;;;;;;5073486;28;20023;-27
2023/12/08 05:53:06;;;;;;;24.27;12.73;;;;;;;;;;5073226;28;20278;-27
2023/12/08 05:55:31;;;;;;;25.05;12.90;;;;;;;;;;5073736;28;20031;-27
2023/12/08 05:57:56;;;;;;;27.97;13.63;;;;;;;;;;5073147;28;20369;-27
2023/12/08 06:00:21;;;;;;;25.08;12.55;;;;;;;;;;5073385;28;20315;-27
2023/12/08 06:02:46;;;;;;;25.23;12.98;;;;;;;;;;5073129;28;20025;-27
2023/12/08 06:05:13;;;;;;;22.80;13.02;;;;;;;;;;5072958;28;20020;-27
2023/12/08 06:07:38;;;;;;;26.90;13.15;;;;;;;;;;5073305;28;20482;-27
2023/12/08 06:10:03;;;;;;;23.83;13.30;;;;;;;;;;5072972;28;20028;-27
2023/12/08 06:12:29;;;;;;;26.67;13.57;;;;;;;;;;5073180;28;20096;-27
2023/12/08 06:14:54;;;;;;;25.63;12.40;;;;;;;;;;5073040;28;20096;-27
2023/12/08 06:17:20;;;;;;;25.55;13.38;;;;;;;;;;5073227;28;20265;-27
2023/12/08 06:19:45;;;;;;;27.50;14.07;;;;;;;;;;5072942;28;20016;-27
2023/12/08 06:22:10;;;;;;;28.92;13.88;;;;;;;;;;5073130;28;20024;-27
2023/12/08 06:24:35;;;;;;;26.08;13.70;;;;;;;;;;5072874;28;20025;-27
2023/12/08 06:27:00;;;;;;;24.63;13.53;;;;;;;;;;5073420;28;20028;-27
2023/12/08 06:29:25;;;;;;;25.85;13.43;;;;;;;;;;5072849;28;20734;-27
2023/12/08 06:31:51;;;;;;;26.97;13.60;;;;;;;;;;5072720;28;20025;-27
2023/12/08 06:34:16;;;;;;;27.35;13.50;;;;;;;;;;5072996;28;20420;-27
2023/12/08 06:36:45;;;;;;;25.20;13.52;;;;;;;;;;5073010;28;20052;-27
2023/12/08 06:39:11;;;;;;;27.10;13.63;;;;;;;;;;5075821;28;20101;-27
2023/12/08 06:41:36;;;;;;;29.98;14.05;;;;;;;;;;5076345;28;20457;-27
2023/12/08 06:44:01;;;;;;;30.00;13.83;;;;;;;;;;5076902;28;20115;-27
2023/12/08 06:46:27;;;;;;;28.23;13.90;;;;;;;;;;5076445;28;20603;-28
2023/12/08 06:48:52;;;;;;;26.80;14.13;;;;;;;;;;5076207;28;20027;-27
2023/12/08 06:51:17;;;;;;;28.93;14.33;;;;;;;;;;5076230;28;20411;-26
2023/12/08 06:53:42;;;;;;;29.10;14.50;;;;;;;;;;5076356;28;20251;-26
2023/12/08 06:56:08;;;;;;;21.70;11.38;;;;;;;;;;5076651;28;20017;-26
2023/12/08 06:58:33;;;;;;;30.73;14.77;;;;;;;;;;5076521;28;20025;-26
2023/12/08 07:00:58;;;;;;;28.17;14.80;;;;;;;;;;5076160;28;20039;-26
2023/12/08 07:03:23;;;;;;;31.70;14.32;;;;;;;;;;5076201;28;20455;-26
2023/12/08 07:05:48;;;;;;;31.17;14.90;;;;;;;;;;5075881;28;20460;-26
2023/12/08 07:08:14;;;;;;;29.60;13.98;;;;;;;;;;5076091;28;20324;-26
2023/12/08 07:10:39;;;;;;;31.37;15.27;;;;;;;;;;5075700;28;20059;-27
2023/12/08 07:13:04;;;;;;;31.13;15.67;;;;;;;;;;5075793;28;20250;-26
2023/12/08 07:15:29;;;;;;;27.87;14.27;;;;;;;;;;5076326;28;20258;-27
2023/12/08 07:17:55;;;;;;;29.23;14.38;;;;;;;;;;5075822;28;20734;-27
2023/12/08 07:20:21;;;;;;;28.10;14.80;;;;;;;;;;5074361;28;20016;-26
2023/12/08 07:22:47;;;;;;;32.45;15.60;;;;;;;;;;5075486;28;20033;-26
2023/12/08 07:25:12;;;;;;;32.70;15.27;;;;;;;;;;5075990;28;20024;-26
2023/12/08 07:27:37;;;;;;;31.77;15.43;;;;;;;;;;5075509;28;20251;-27
2023/12/08 07:30:03;;;;;;;30.97;15.00;;;;;;;;;;5075637;28;20036;-27
2023/12/08 07:32:28;;;;;;;33.60;16.20;;;;;;;;;;5075424;28;20342;-27
2023/12/08 07:34:53;;;;;;;31.67;16.45;;;;;;;;;;5075297;28;20096;-27
2023/12/08 07:37:18;;;;;;;29.13;15.00;;;;;;;;;;5075583;28;20431;-27
2023/12/08 07:39:44;;;;;;;31.33;16.00;;;;;;;;;;5075261;28;20024;-26
2023/12/08 07:42:09;;;;;;;34.42;15.73;;;;;;;;;;5075735;28;20300;-26
2023/12/08 07:44:37;;;;;;;29.00;15.38;;;;;;;;;;5075058;28;20028;-26
2023/12/08 07:47:02;;;;;;;30.77;15.13;;;;;;;;;;5075610;28;20051;-27
2023/12/08 07:49:27;;;;;;;34.55;15.60;;;;;;;;;;5074455;28;20036;-27
2023/12/08 07:51:53;;;;;;;31.13;15.35;;;;;;;;;;5075104;28;20012;-26
2023/12/08 07:54:18;;;;;;;31.98;15.30;;;;;;;;;;5075116;28;20024;-26
2023/12/08 07:56:43;;;;;;;29.55;15.55;;;;;;;;;;5075217;28;20023;-27
2023/12/08 07:59:08;;;;;;;31.47;16.37;;;;;;;;;;5074872;28;20021;-26
2023/12/08 08:01:35;;;;;;;37.33;16.73;;;;;;;;;;5074538;28;20302;-27
2023/12/08 08:04:00;;;;;;;30.55;15.07;;;;;;;;;;5074964;28;20016;-27
2023/12/08 08:06:25;;;;;;;34.57;16.20;;;;;;;;;;5074550;28;20478;-27
2023/12/08 08:08:50;;;;;;;31.38;15.70;;;;;;;;;;5075169;28;20269;-27
2023/12/08 08:11:15;;;;;;;33.13;14.90;;;;;;;;;;5075014;28;20031;-27
2023/12/08 08:13:41;;;;;;;32.57;15.40;;;;;;;;;;5075104;28;20020;-27
2023/12/08 08:16:06;;;;;;;29.65;14.18;;;;;;;;;;5074790;28;20301;-27
2023/12/08 08:18:31;;;;;;;30.35;15.15;;;;;;;;;;5074229;28;20039;-27
2023/12/08 08:20:56;;;;;;;32.70;15.87;;;;;;;;;;5074310;28;20085;-27
2023/12/08 08:23:22;;;;;;;32.23;15.70;;;;;;;;;;5074235;28;20673;-27
2023/12/08 08:25:47;;;;;;;34.47;15.60;;;;;;;;;;5074495;28;20290;-27
2023/12/08 08:28:12;;;;;;;30.23;14.70;;;;;;;;;;5073005;28;20772;-27
2023/12/08 08:30:38;;;;;;;31.08;14.98;;;;;;;;;;5074508;28;20016;-27
2023/12/08 08:33:03;;;;;;;30.80;15.05;;;;;;;;;;5074678;28;20043;-27
2023/12/08 08:35:28;;;;;;;31.47;15.10;;;;;;;;;;5074153;28;20024;-27
2023/12/08 08:37:53;;;;;;;32.28;15.13;;;;;;;;;;5074318;28;20334;-27
2023/12/08 08:40:19;;;;;;;31.08;14.95;;;;;;;;;;5074064;28;20022;-27
2023/12/08 08:42:45;;;;;;;43.83;15.73;;;;;;;;;;5074195;28;20012;-27
2023/12/08 08:45:10;;;;;;;33.95;16.38;;;;;;;;;;5074012;28;20416;-27
2023/12/08 08:47:35;;;;;;;35.60;14.30;;;;;;;;;;5073998;28;20032;-27
2023/12/08 08:50:00;;;;;;;33.55;14.38;;;;;;;;;;5074301;28;20031;-27
2023/12/08 08:52:26;;;;;;;31.35;15.38;;;;;;;;;;5074330;28;20021;-27
2023/12/08 08:54:51;;;;;;;40.85;16.23;;;;;;;;;;5073977;28;20017;-28
2023/12/08 08:57:16;;;;;;;36.87;15.73;;;;;;;;;;5073690;28;20460;-27
2023/12/08 08:59:41;;;;;;;34.17;14.82;;;;;;;;;;5073694;28;20321;-27
2023/12/08 09:02:06;;;;;;;41.73;15.50;;;;;;;;;;5072169;28;20094;-27
2023/12/08 09:04:32;;;;;;;36.47;15.73;;;;;;;;;;5073650;28;20294;-27
2023/12/08 09:06:57;;;;;;;38.30;15.17;;;;;;;;;;5074152;28;20024;-27
2023/12/08 09:09:22;;;;;;;37.25;16.35;;;;;;;;;;5073548;28;20266;-27
2023/12/08 09:11:48;;;;;;;44.08;17.17;;;;;;;;;;5073599;28;20016;-27
2023/12/08 09:14:14;;;;;;;40.85;15.57;;;;;;;;;;5073361;28;20099;-27
2023/12/08 09:16:39;;;;;;;36.70;15.25;;;;;;;;;;5073453;28;20051;-27
2023/12/08 09:19:05;;;;;;;39.85;14.65;;;;;;;;;;5073522;28;20063;-27
2023/12/08 09:21:31;;;;;;;39.10;17.27;;;;;;;;;;5073629;28;20024;-27
2023/12/08 09:23:56;;;;;;;35.60;15.63;;;;;;;;;;5073704;28;20047;-27
2023/12/08 09:26:21;;;;;;;55.45;16.25;;;;;;;;;;5071575;28;20074;-27
2023/12/08 09:28:46;;;;;;;46.37;15.73;;;;;;;;;;5071367;28;20092;-26
2023/12/08 09:31:12;;;;;;;37.63;15.85;;;;;;;;;;5071645;28;20251;-27
2023/12/08 09:33:37;;;;;;;38.97;15.85;;;;;;;;;;5071391;28;20016;-27
2023/12/08 09:36:02;;;;;;;37.92;15.68;;;;;;;;;;5071708;28;20036;-26
2023/12/08 09:38:27;;;;;;;44.22;16.42;;;;;;;;;;5071474;28;20039;-28
2023/12/08 09:40:53;;;;;;;45.38;15.75;;;;;;;;;;5072407;28;20012;-28
2023/12/08 09:43:20;;;;;;;35.13;15.52;;;;;;;;;;5073576;28;20364;-27
2023/12/08 09:45:46;;;;;;;62.13;17.88;;;;;;;;;;5073125;28;20020;-27
2023/12/08 09:48:11;;;;;;;44.63;18.45;;;;;;;;;;5073789;28;20025;-27
2023/12/08 09:50:37;;;;;;;40.28;16.38;;;;;;;;;;5073278;28;20083;-27
2023/12/08 09:53:04;;;;;;;46.00;15.77;;;;;;;;;;5073198;28;20079;-27
2023/12/08 09:55:29;;;;;;;50.13;17.50;;;;;;;;;;5073110;28;20012;-28
2023/12/08 09:57:55;;;;;;;40.97;16.10;;;;;;;;;;5073150;28;20028;-27
2023/12/08 10:00:22;;;;;;;38.35;16.92;;;;;;;;;;5073397;28;20037;-27
2023/12/08 10:02:49;;;;;;;46.72;15.73;;;;;;;;;;5073434;28;20367;-27
2023/12/08 10:05:14;;;;;;;52.30;17.27;;;;;;;;;;5073236;28;20023;-27
2023/12/08 10:07:41;;;;;;;55.67;17.13;;;;;;;;;;5073278;28;20021;-27
2023/12/08 10:10:08;;;;;;;37.45;16.58;;;;;;;;;;5073271;28;20332;-27
2023/12/08 10:12:33;;;;;;;48.00;16.73;;;;;;;;;;5073264;28;20044;-27
2023/12/08 10:14:58;;;;;;;42.63;16.33;;;;;;;;;;5076813;28;20142;-27
2023/12/08 10:17:24;;;;;;;37.15;15.98;;;;;;;;;;5076823;28;20255;-27
2023/12/08 10:19:52;;;;;;;39.30;16.42;;;;;;;;;;5076699;28;20082;-27
2023/12/08 10:22:17;;;;;;;47.20;17.98;;;;;;;;;;5076987;28;20378;-27
2023/12/08 10:24:43;;;;;;;42.70;16.45;;;;;;;;;;5076799;28;20113;-27
2023/12/08 10:27:11;;;;;;;39.58;16.63;;;;;;;;;;5075775;28;20052;-27
2023/12/08 10:29:37;;;;;;;49.63;17.45;;;;;;;;;;5076443;28;20062;-27
2023/12/08 10:32:04;;;;;;;47.45;17.00;;;;;;;;;;5076474;28;20401;-27
2023/12/08 10:34:29;;;;;;;47.40;17.65;;;;;;;;;;5076295;28;20017;-27
2023/12/08 10:36:55;;;;;;;60.58;17.23;;;;;;;;;;5076379;28;20030;-27
2023/12/08 10:39:20;;;;;;;54.80;17.10;;;;;;;;;;5076837;28;20097;-27
2023/12/08 10:41:48;;;;;;;55.43;16.37;;;;;;;;;;5074256;28;20028;-27
2023/12/08 10:44:17;;;;;;;46.03;16.95;;;;;;;;;;5073296;28;20677;-27
2023/12/08 10:46:43;;;;;;;54.53;16.83;;;;;;;;;;5073925;28;20158;-27
2023/12/08 10:49:09;;;;;;;57.33;16.70;;;;;;;;;;5074084;28;20103;-27
2023/12/08 10:51:34;;;;;;;60.03;17.70;;;;;;;;;;5073995;28;20019;-27
2023/12/08 10:53:59;;;;;;;49.90;17.13;;;;;;;;;;5074507;28;20467;-27
2023/12/08 10:56:25;;;;;;;76.53;18.67;;;;;;;;;;5075581;28;20158;-28
2023/12/08 10:58:53;;;;;;;65.47;19.05;;;;;;;;;;5076090;28;20379;-27
2023/12/08 11:01:18;;;;;;;64.40;17.25;;;;;;;;;;5075891;28;20422;-27
2023/12/08 11:03:45;;;;;;;62.65;17.90;;;;;;;;;;5076004;28;20047;-27
2023/12/08 11:06:21;;;;;;;59.13;18.05;;;;;;;;;;5075932;28;20052;-27
2023/12/08 11:08:47;;;;;;;58.10;17.17;;;;;;;;;;5075755;28;20028;-27
2023/12/08 11:11:12;;;;;;;86.88;17.98;;;;;;;;;;5076023;28;20013;-27
2023/12/08 11:13:43;;;;;;;54.67;16.67;;;;;;;;;;5076077;28;20024;-27
2023/12/08 11:16:27;;;;;;;79.53;18.13;;;;;;;;;;5075885;28;20066;-27
2023/12/08 11:18:54;;;;;;;49.50;17.02;;;;;;;;;;5075725;28;20021;-28
2023/12/08 11:21:20;;;;;;;59.97;17.55;;;;;;;;;;5075621;28;20020;-27
2023/12/08 11:23:46;;;;;;;73.22;17.77;;;;;;;;;;5075416;28;20024;-27
2023/12/08 11:26:31;;;;;;;63.03;17.67;;;;;;;;;;5075097;28;20474;-28
2023/12/08 11:29:08;;;;;;;77.63;18.20;;;;;;;;;;5075845;28;20471;-27
2023/12/08 11:31:41;;;;;;;58.00;16.77;;;;;;;;;;5075970;28;20020;-27
2023/12/08 11:34:11;;;;;;;57.42;17.35;;;;;;;;;;5075985;28;20070;-27
2023/12/08 11:36:44;;;;;;;60.85;18.10;;;;;;;;;;5075638;28;20032;-27
2023/12/08 11:39:10;;;;;;;;;;;;;;;;;;5076042;28;20043;-27
2023/12/08 11:41:37;;;;;;;48.05;16.65;;;;;;;;;;5075266;28;19904;-27
2023/12/08 11:44:06;;;;;;;58.17;18.30;;;;;;;;;;5075153;28;20070;-27
2023/12/08 11:46:31;;;;;;;47.28;18.08;;;;;;;;;;5075080;28;20021;-27
2023/12/08 11:48:57;;;;;;;59.10;18.48;;;;;;;;;;5073893;28;20031;-27
2023/12/08 11:51:23;;;;;;;74.93;18.35;;;;;;;;;;5074214;28;20020;-27
2023/12/08 11:53:53;;;;;;;72.20;18.50;;;;;;;;;;5074664;28;20012;-27
2023/12/08 11:56:38;;;;;;;64.78;18.65;;;;;;;;;;5074752;28;20074;-27
2023/12/08 11:59:03;;;;;;;65.60;19.40;;;;;;;;;;5074931;28;20024;-27
2023/12/08 12:01:29;;;;;;;54.65;19.40;;;;;;;;;;5074723;28;20514;-28
2023/12/08 12:03:54;;;;;;;60.60;18.08;;;;;;;;;;5074640;28;20093;-27
2023/12/08 12:06:19;;;;;;;69.78;18.42;;;;;;;;;;5074552;28;20071;-27
2023/12/08 12:08:45;;;;;;;49.85;18.85;;;;;;;;;;5074568;28;20488;-27
2023/12/08 12:11:10;;;;;;;73.00;18.92;;;;;;;;;;5074550;28;20050;-27
2023/12/08 12:13:37;;;;;;;62.88;18.55;;;;;;;;;;5074639;28;20067;-27
2023/12/08 12:16:03;;;;;;;64.50;18.95;;;;;;;;;;5072598;28;20020;-27
2023/12/08 12:18:30;;;;;;;63.83;19.42;;;;;;;;;;5073303;28;20025;-27
2023/12/08 12:20:55;;;;;;;87.03;20.23;;;;;;;;;;5073296;28;20471;-27
2023/12/08 12:23:20;;;;;;;79.50;20.73;;;;;;;;;;5073312;28;20024;-27
2023/12/08 12:25:49;;;;;;;79.87;20.73;;;;;;;;;;5073055;28;20668;-29
2023/12/08 12:28:16;;;;;;;72.30;18.83;;;;;;;;;;5074185;28;20575;-27
2023/12/08 12:30:41;;;;;;;77.15;19.33;;;;;;;;;;5073872;28;20012;-27
2023/12/08 12:33:07;;;;;;;82.85;20.05;;;;;;;;;;5074083;28;20017;-28
2023/12/08 12:35:32;;;;;;;94.40;19.20;;;;;;;;;;5073607;28;20029;-27
2023/12/08 12:37:57;;;;;;;72.23;19.83;;;;;;;;;;5073664;28;20023;-27
2023/12/08 12:40:24;;;;;;;57.50;18.00;;;;;;;;;;5072651;28;20250;-27
2023/12/08 12:42:49;;;;;;;68.13;19.30;;;;;;;;;;5074434;28;20776;-27
2023/12/08 12:45:27;;;;;;;117.30;20.23;;;;;;;;;;5074255;28;20021;-28
2023/12/08 12:48:07;;;;;;;67.10;18.42;;;;;;;;;;5074398;28;20048;-27
2023/12/08 12:50:45;;;;;;;76.18;18.23;;;;;;;;;;5073929;28;20097;-28
2023/12/08 12:53:10;;;;;;;66.70;18.10;;;;;;;;;;5074054;28;20012;-27
2023/12/08 12:55:35;;;;;;;61.43;17.13;;;;;;;;;;5073638;28;20062;-28
2023/12/08 12:58:02;;;;;;;80.57;18.08;;;;;;;;;;5074153;28;20251;-27
2023/12/08 13:00:31;;;;;;;72.82;17.75;;;;;;;;;;5073766;28;20048;-36
2023/12/08 13:02:56;;;;;;;55.58;16.27;;;;;;;;;;5072673;28;20017;-27
2023/12/08 13:05:21;;;;;;;70.47;16.60;;;;;;;;;;5073952;28;20024;-27
2023/12/08 13:07:57;;;;;;;46.50;15.55;;;;;;;;;;5074239;28;20400;-27
2023/12/08 13:10:22;;;;;;;65.05;15.73;;;;;;;;;;5073761;28;20043;-27
2023/12/08 13:12:47;;;;;;;60.80;15.27;;;;;;;;;;5074267;28;20021;-28
2023/12/08 13:15:12;;;;;;;50.83;16.70;;;;;;;;;;5073779;28;20048;-27
2023/12/08 13:17:38;;;;;;;73.28;17.83;;;;;;;;;;5073666;28;20031;-27
2023/12/08 13:20:03;;;;;;;61.33;15.73;;;;;;;;;;5073687;28;20425;-27
2023/12/08 13:22:28;;;;;;;51.47;15.40;;;;;;;;;;5073630;28;20099;-27
2023/12/08 13:24:53;;;;;;;49.38;15.30;;;;;;;;;;5073361;28;20420;-27
2023/12/08 13:27:19;;;;;;;50.42;16.08;;;;;;;;;;5073372;28;20077;-28
2023/12/08 13:29:44;;;;;;;48.53;15.77;;;;;;;;;;5073033;28;20472;-28
2023/12/08 13:32:09;;;;;;;56.45;15.32;;;;;;;;;;5073554;28;20340;-28
2023/12/08 13:34:34;;;;;;;52.00;15.45;;;;;;;;;;5072130;28;20017;-28
2023/12/08 13:37:00;;;;;;;58.45;15.77;;;;;;;;;;5073180;28;20031;-28
2023/12/08 13:39:28;;;;;;;50.67;14.98;;;;;;;;;;5073639;28;20016;-28
2023/12/08 13:41:53;;;;;;;45.28;15.60;;;;;;;;;;5073057;28;20012;-28
2023/12/08 13:44:19;;;;;;;56.67;14.73;;;;;;;;;;5073119;28;20017;-28
2023/12/08 13:46:45;;;;;;;46.10;15.40;;;;;;;;;;5072904;28;20027;-28
2023/12/08 13:49:10;;;;;;;56.50;16.63;;;;;;;;;;5076537;28;20028;-27
2023/12/08 13:51:36;;;;;;;66.53;17.08;;;;;;;;;;5077323;28;20134;-28
2023/12/08 13:54:01;;;;;;;66.13;16.38;;;;;;;;;;5077533;28;20361;-28
2023/12/08 13:56:26;;;;;;;56.25;15.88;;;;;;;;;;5077268;28;20029;-28
2023/12/08 13:58:51;;;;;;;58.57;15.20;;;;;;;;;;5077733;28;20028;-28
2023/12/08 14:01:17;;;;;;;62.60;16.10;;;;;;;;;;5076732;28;20401;-28
2023/12/08 14:03:42;;;;;;;53.65;15.07;;;;;;;;;;5076992;28;20270;-28
2023/12/08 14:06:07;;;;;;;51.08;14.60;;;;;;;;;;5076851;28;20027;-28
2023/12/08 14:08:33;;;;;;;58.50;14.60;;;;;;;;;;5076895;28;20051;-28
2023/12/08 14:10:59;;;;;;;61.55;15.07;;;;;;;;;;5076802;28;20020;-28